sensor_id;sensor_type;location;lat;lon;timestamp;P1;durP1;ratioP1;P2;durP2;ratioP2
79616;SDS011;69097;52.132;5.422;2023-12-22T00:00:56;12.38;;;2.47;;
79616;SDS011;69097;52.132;5.422;2023-12-22T00:03:22;11.00;;;2.60;;
79616;SDS011;69097;52.132;5.422;2023-12-22T00:05:49;9.65;;;2.72;;
79616;SDS011;69097;52.132;5.422;2023-12-22T00:08:15;7.03;;;2.75;;
79616;SDS011;69097;52.132;5.422;2023-12-22T00:10:42;11.32;;;1.90;;
79616;SDS011;69097;52.132;5.422;2023-12-22T00:13:08;5.05;;;1.75;;
79616;SDS011;69097;52.132;5.422;2023-12-22T00:15:35;9.60;;;2.13;;
79616;SDS011;69097;52.132;5.422;2023-12-22T00:18:01;6.18;;;1.88;;
79616;SDS011;69097;52.132;5.422;2023-12-22T00:20:28;8.15;;;1.95;;
79616;SDS011;69097;52.132;5.422;2023-12-22T00:22:54;5.90;;;2.30;;
79616;SDS011;69097;52.132;5.422;2023-12-22T00:25:21;10.40;;;1.67;;
79616;SDS011;69097;52.132;5.422;2023-12-22T00:27:47;4.65;;;1.27;;
79616;SDS011;69097;52.132;5.422;2023-12-22T00:30:14;9.23;;;1.80;;
79616;SDS011;69097;52.132;5.422;2023-12-22T00:32:41;6.00;;;1.63;;
79616;SDS011;69097;52.132;5.422;2023-12-22T00:35:07;4.65;;;1.25;;
79616;SDS011;69097;52.132;5.422;2023-12-22T00:37:34;4.40;;;1.65;;
79616;SDS011;69097;52.132;5.422;2023-12-22T00:40:01;5.10;;;1.48;;
79616;SDS011;69097;52.132;5.422;2023-12-22T00:42:28;4.82;;;1.63;;
79616;SDS011;69097;52.132;5.422;2023-12-22T00:44:55;5.20;;;2.10;;
79616;SDS011;69097;52.132;5.422;2023-12-22T00:47:21;5.97;;;1.58;;
79616;SDS011;69097;52.132;5.422;2023-12-22T00:49:48;9.65;;;1.40;;
79616;SDS011;69097;52.132;5.422;2023-12-22T00:52:14;4.38;;;1.50;;
79616;SDS011;69097;52.132;5.422;2023-12-22T00:54:41;6.22;;;1.70;;
79616;SDS011;69097;52.132;5.422;2023-12-22T00:57:08;5.32;;;1.63;;
79616;SDS011;69097;52.132;5.422;2023-12-22T00:59:34;7.75;;;1.75;;
79616;SDS011;69097;52.132;5.422;2023-12-22T01:02:00;9.68;;;2.28;;
79616;SDS011;69097;52.132;5.422;2023-12-22T01:04:27;7.18;;;2.28;;
79616;SDS011;69097;52.132;5.422;2023-12-22T01:06:53;9.45;;;2.22;;
79616;SDS011;69097;52.132;5.422;2023-12-22T01:09:20;5.82;;;1.45;;
79616;SDS011;69097;52.132;5.422;2023-12-22T01:11:46;6.50;;;2.33;;
79616;SDS011;69097;52.132;5.422;2023-12-22T01:14:13;6.40;;;1.70;;
79616;SDS011;69097;52.132;5.422;2023-12-22T01:16:40;5.10;;;1.25;;
79616;SDS011;69097;52.132;5.422;2023-12-22T01:19:06;5.97;;;2.13;;
79616;SDS011;69097;52.132;5.422;2023-12-22T01:21:33;4.50;;;1.00;;
79616;SDS011;69097;52.132;5.422;2023-12-22T01:23:59;7.50;;;1.15;;
79616;SDS011;69097;52.132;5.422;2023-12-22T01:26:26;7.80;;;1.20;;
79616;SDS011;69097;52.132;5.422;2023-12-22T01:28:52;9.18;;;2.25;;
79616;SDS011;69097;52.132;5.422;2023-12-22T01:31:19;6.63;;;1.73;;
79616;SDS011;69097;52.132;5.422;2023-12-22T01:33:46;7.45;;;1.98;;
79616;SDS011;69097;52.132;5.422;2023-12-22T01:36:12;7.75;;;0.98;;
79616;SDS011;69097;52.132;5.422;2023-12-22T01:38:39;11.05;;;2.08;;
79616;SDS011;69097;52.132;5.422;2023-12-22T01:41:05;10.52;;;1.50;;
79616;SDS011;69097;52.132;5.422;2023-12-22T01:43:32;8.43;;;2.20;;
79616;SDS011;69097;52.132;5.422;2023-12-22T01:45:58;7.60;;;2.05;;
79616;SDS011;69097;52.132;5.422;2023-12-22T01:48:26;10.55;;;2.03;;
79616;SDS011;69097;52.132;5.422;2023-12-22T01:50:55;11.32;;;1.98;;
79616;SDS011;69097;52.132;5.422;2023-12-22T01:53:24;7.78;;;1.92;;
79616;SDS011;69097;52.132;5.422;2023-12-22T01:55:53;9.68;;;1.98;;
79616;SDS011;69097;52.132;5.422;2023-12-22T01:58:24;9.23;;;3.38;;
79616;SDS011;69097;52.132;5.422;2023-12-22T02:00:52;11.73;;;2.33;;
79616;SDS011;69097;52.132;5.422;2023-12-22T02:03:19;7.47;;;2.08;;
79616;SDS011;69097;52.132;5.422;2023-12-22T02:05:47;8.48;;;1.98;;
79616;SDS011;69097;52.132;5.422;2023-12-22T02:08:14;6.50;;;1.40;;
79616;SDS011;69097;52.132;5.422;2023-12-22T02:10:44;11.07;;;2.08;;
79616;SDS011;69097;52.132;5.422;2023-12-22T02:13:11;6.97;;;1.00;;
79616;SDS011;69097;52.132;5.422;2023-12-22T02:15:38;10.88;;;2.67;;
79616;SDS011;69097;52.132;5.422;2023-12-22T02:18:12;13.68;;;2.50;;
79616;SDS011;69097;52.132;5.422;2023-12-22T02:20:43;12.38;;;1.45;;
79616;SDS011;69097;52.132;5.422;2023-12-22T02:23:10;13.68;;;2.35;;
79616;SDS011;69097;52.132;5.422;2023-12-22T02:25:37;6.75;;;1.98;;
79616;SDS011;69097;52.132;5.422;2023-12-22T02:28:05;6.22;;;2.03;;
79616;SDS011;69097;52.132;5.422;2023-12-22T02:33:17;10.55;;;2.22;;
79616;SDS011;69097;52.132;5.422;2023-12-22T02:35:44;10.52;;;2.13;;
79616;SDS011;69097;52.132;5.422;2023-12-22T02:38:15;11.73;;;2.38;;
79616;SDS011;69097;52.132;5.422;2023-12-22T02:43:10;11.15;;;2.05;;
79616;SDS011;69097;52.132;5.422;2023-12-22T02:45:37;12.23;;;2.75;;
79616;SDS011;69097;52.132;5.422;2023-12-22T02:48:04;9.35;;;1.42;;
79616;SDS011;69097;52.132;5.422;2023-12-22T02:50:31;9.75;;;2.20;;
79616;SDS011;69097;52.132;5.422;2023-12-22T02:52:57;13.52;;;2.40;;
79616;SDS011;69097;52.132;5.422;2023-12-22T02:55:24;13.90;;;2.47;;
79616;SDS011;69097;52.132;5.422;2023-12-22T02:57:50;12.38;;;2.78;;
79616;SDS011;69097;52.132;5.422;2023-12-22T03:00:17;10.98;;;2.60;;
79616;SDS011;69097;52.132;5.422;2023-12-22T03:02:43;14.88;;;4.32;;
79616;SDS011;69097;52.132;5.422;2023-12-22T03:05:10;13.68;;;2.97;;
79616;SDS011;69097;52.132;5.422;2023-12-22T03:07:36;14.02;;;3.35;;
79616;SDS011;69097;52.132;5.422;2023-12-22T03:10:03;13.20;;;2.72;;
79616;SDS011;69097;52.132;5.422;2023-12-22T03:12:30;18.85;;;2.15;;
79616;SDS011;69097;52.132;5.422;2023-12-22T03:14:56;12.27;;;2.75;;
79616;SDS011;69097;52.132;5.422;2023-12-22T03:17:23;14.15;;;3.13;;
79616;SDS011;69097;52.132;5.422;2023-12-22T03:19:49;15.75;;;2.92;;
79616;SDS011;69097;52.132;5.422;2023-12-22T03:22:16;11.13;;;2.63;;
79616;SDS011;69097;52.132;5.422;2023-12-22T03:24:43;13.75;;;2.40;;
79616;SDS011;69097;52.132;5.422;2023-12-22T03:27:09;11.68;;;3.10;;
79616;SDS011;69097;52.132;5.422;2023-12-22T03:29:36;13.35;;;2.50;;
79616;SDS011;69097;52.132;5.422;2023-12-22T03:32:02;15.95;;;2.58;;
79616;SDS011;69097;52.132;5.422;2023-12-22T03:34:29;16.52;;;2.83;;
79616;SDS011;69097;52.132;5.422;2023-12-22T03:36:55;16.25;;;2.38;;
79616;SDS011;69097;52.132;5.422;2023-12-22T03:39:22;13.82;;;2.35;;
79616;SDS011;69097;52.132;5.422;2023-12-22T03:41:49;6.57;;;2.20;;
79616;SDS011;69097;52.132;5.422;2023-12-22T03:44:15;14.30;;;2.35;;
79616;SDS011;69097;52.132;5.422;2023-12-22T03:46:42;8.57;;;2.10;;
79616;SDS011;69097;52.132;5.422;2023-12-22T03:49:09;7.72;;;1.65;;
79616;SDS011;69097;52.132;5.422;2023-12-22T03:51:35;5.70;;;2.00;;
79616;SDS011;69097;52.132;5.422;2023-12-22T03:54:03;7.30;;;1.80;;
79616;SDS011;69097;52.132;5.422;2023-12-22T03:56:30;5.97;;;1.92;;
79616;SDS011;69097;52.132;5.422;2023-12-22T03:58:56;4.15;;;1.88;;
79616;SDS011;69097;52.132;5.422;2023-12-22T04:01:23;4.75;;;1.58;;
79616;SDS011;69097;52.132;5.422;2023-12-22T04:03:49;7.47;;;1.67;;
79616;SDS011;69097;52.132;5.422;2023-12-22T04:06:16;7.85;;;2.47;;
79616;SDS011;69097;52.132;5.422;2023-12-22T04:08:42;7.60;;;1.60;;
79616;SDS011;69097;52.132;5.422;2023-12-22T04:11:09;6.00;;;1.50;;
79616;SDS011;69097;52.132;5.422;2023-12-22T04:13:35;5.07;;;1.83;;
79616;SDS011;69097;52.132;5.422;2023-12-22T04:16:02;8.10;;;1.48;;
79616;SDS011;69097;52.132;5.422;2023-12-22T04:18:31;4.60;;;1.80;;
79616;SDS011;69097;52.132;5.422;2023-12-22T04:20:58;5.15;;;1.73;;
79616;SDS011;69097;52.132;5.422;2023-12-22T04:23:24;9.00;;;1.85;;
79616;SDS011;69097;52.132;5.422;2023-12-22T04:25:51;8.32;;;2.20;;
79616;SDS011;69097;52.132;5.422;2023-12-22T04:28:18;9.55;;;2.67;;
79616;SDS011;69097;52.132;5.422;2023-12-22T04:30:44;9.75;;;2.33;;
79616;SDS011;69097;52.132;5.422;2023-12-22T04:33:11;10.00;;;2.08;;
79616;SDS011;69097;52.132;5.422;2023-12-22T04:35:37;9.35;;;2.58;;
79616;SDS011;69097;52.132;5.422;2023-12-22T04:38:03;11.23;;;2.03;;
79616;SDS011;69097;52.132;5.422;2023-12-22T04:40:30;11.98;;;2.13;;
79616;SDS011;69097;52.132;5.422;2023-12-22T04:42:56;11.30;;;1.88;;
79616;SDS011;69097;52.132;5.422;2023-12-22T04:45:23;12.27;;;2.17;;
79616;SDS011;69097;52.132;5.422;2023-12-22T04:47:49;16.02;;;2.85;;
79616;SDS011;69097;52.132;5.422;2023-12-22T04:50:16;16.95;;;3.00;;
79616;SDS011;69097;52.132;5.422;2023-12-22T04:52:43;13.07;;;2.55;;
79616;SDS011;69097;52.132;5.422;2023-12-22T04:55:10;8.40;;;2.20;;
79616;SDS011;69097;52.132;5.422;2023-12-22T04:57:37;11.15;;;2.47;;
79616;SDS011;69097;52.132;5.422;2023-12-22T05:00:03;14.40;;;3.28;;
79616;SDS011;69097;52.132;5.422;2023-12-22T05:04:57;11.27;;;2.25;;
79616;SDS011;69097;52.132;5.422;2023-12-22T05:07:24;11.77;;;2.38;;
79616;SDS011;69097;52.132;5.422;2023-12-22T05:09:50;11.95;;;2.63;;
79616;SDS011;69097;52.132;5.422;2023-12-22T05:12:18;9.00;;;2.17;;
79616;SDS011;69097;52.132;5.422;2023-12-22T05:14:45;11.98;;;2.58;;
79616;SDS011;69097;52.132;5.422;2023-12-22T05:17:12;13.95;;;2.45;;
79616;SDS011;69097;52.132;5.422;2023-12-22T05:19:38;13.57;;;2.80;;
79616;SDS011;69097;52.132;5.422;2023-12-22T05:22:05;14.80;;;2.22;;
79616;SDS011;69097;52.132;5.422;2023-12-22T05:24:31;13.00;;;3.72;;
79616;SDS011;69097;52.132;5.422;2023-12-22T05:26:58;16.38;;;3.55;;
79616;SDS011;69097;52.132;5.422;2023-12-22T05:29:24;12.18;;;3.75;;
79616;SDS011;69097;52.132;5.422;2023-12-22T05:31:50;7.32;;;2.33;;
79616;SDS011;69097;52.132;5.422;2023-12-22T05:34:17;8.98;;;2.95;;
79616;SDS011;69097;52.132;5.422;2023-12-22T05:36:43;12.40;;;2.65;;
79616;SDS011;69097;52.132;5.422;2023-12-22T05:39:10;16.02;;;2.63;;
79616;SDS011;69097;52.132;5.422;2023-12-22T05:41:37;10.55;;;2.25;;
79616;SDS011;69097;52.132;5.422;2023-12-22T05:44:06;15.23;;;2.45;;
79616;SDS011;69097;52.132;5.422;2023-12-22T05:46:36;10.23;;;2.15;;
79616;SDS011;69097;52.132;5.422;2023-12-22T05:49:04;10.27;;;2.35;;
79616;SDS011;69097;52.132;5.422;2023-12-22T05:51:37;13.07;;;2.42;;
79616;SDS011;69097;52.132;5.422;2023-12-22T05:54:05;11.43;;;2.15;;
79616;SDS011;69097;52.132;5.422;2023-12-22T05:56:34;10.40;;;2.72;;
79616;SDS011;69097;52.132;5.422;2023-12-22T05:59:00;12.63;;;2.15;;
79616;SDS011;69097;52.132;5.422;2023-12-22T06:01:27;13.25;;;1.73;;
79616;SDS011;69097;52.132;5.422;2023-12-22T06:03:53;8.90;;;2.15;;
79616;SDS011;69097;52.132;5.422;2023-12-22T06:06:21;9.90;;;2.53;;
79616;SDS011;69097;52.132;5.422;2023-12-22T06:08:47;8.27;;;2.05;;
79616;SDS011;69097;52.132;5.422;2023-12-22T06:11:14;10.50;;;2.35;;
79616;SDS011;69097;52.132;5.422;2023-12-22T06:13:41;8.77;;;2.00;;
79616;SDS011;69097;52.132;5.422;2023-12-22T06:16:11;10.85;;;2.80;;
79616;SDS011;69097;52.132;5.422;2023-12-22T06:18:39;12.50;;;2.45;;
79616;SDS011;69097;52.132;5.422;2023-12-22T06:21:06;8.75;;;1.40;;
79616;SDS011;69097;52.132;5.422;2023-12-22T06:23:33;7.57;;;2.00;;
79616;SDS011;69097;52.132;5.422;2023-12-22T06:25:59;11.05;;;2.97;;
79616;SDS011;69097;52.132;5.422;2023-12-22T06:28:28;13.38;;;2.70;;
79616;SDS011;69097;52.132;5.422;2023-12-22T06:30:55;9.07;;;2.35;;
79616;SDS011;69097;52.132;5.422;2023-12-22T06:33:21;8.00;;;2.15;;
79616;SDS011;69097;52.132;5.422;2023-12-22T06:35:48;14.18;;;2.83;;
79616;SDS011;69097;52.132;5.422;2023-12-22T06:38:19;8.90;;;2.65;;
79616;SDS011;69097;52.132;5.422;2023-12-22T06:40:46;15.55;;;2.65;;
79616;SDS011;69097;52.132;5.422;2023-12-22T06:43:13;11.43;;;2.63;;
79616;SDS011;69097;52.132;5.422;2023-12-22T06:45:40;15.10;;;3.75;;
79616;SDS011;69097;52.132;5.422;2023-12-22T06:48:07;8.30;;;2.47;;
79616;SDS011;69097;52.132;5.422;2023-12-22T06:50:36;10.60;;;2.00;;
79616;SDS011;69097;52.132;5.422;2023-12-22T06:53:04;11.57;;;2.92;;
79616;SDS011;69097;52.132;5.422;2023-12-22T06:55:43;16.48;;;3.50;;
79616;SDS011;69097;52.132;5.422;2023-12-22T06:58:10;16.67;;;2.97;;
79616;SDS011;69097;52.132;5.422;2023-12-22T07:00:37;16.63;;;2.42;;
79616;SDS011;69097;52.132;5.422;2023-12-22T07:03:04;15.40;;;2.80;;
79616;SDS011;69097;52.132;5.422;2023-12-22T07:05:33;14.23;;;2.65;;
79616;SDS011;69097;52.132;5.422;2023-12-22T07:08:02;12.23;;;3.00;;
79616;SDS011;69097;52.132;5.422;2023-12-22T07:10:29;16.25;;;3.15;;
79616;SDS011;69097;52.132;5.422;2023-12-22T07:12:55;16.13;;;2.95;;
79616;SDS011;69097;52.132;5.422;2023-12-22T07:15:22;9.80;;;2.30;;
79616;SDS011;69097;52.132;5.422;2023-12-22T07:17:48;13.77;;;3.40;;
79616;SDS011;69097;52.132;5.422;2023-12-22T07:20:15;16.65;;;2.85;;
79616;SDS011;69097;52.132;5.422;2023-12-22T07:22:44;16.63;;;2.75;;
79616;SDS011;69097;52.132;5.422;2023-12-22T07:25:11;18.65;;;3.60;;
79616;SDS011;69097;52.132;5.422;2023-12-22T07:27:40;12.45;;;3.28;;
79616;SDS011;69097;52.132;5.422;2023-12-22T07:30:06;24.20;;;3.40;;
79616;SDS011;69097;52.132;5.422;2023-12-22T07:32:33;14.02;;;3.25;;
79616;SDS011;69097;52.132;5.422;2023-12-22T07:35:00;11.38;;;2.97;;
79616;SDS011;69097;52.132;5.422;2023-12-22T07:37:27;15.98;;;2.92;;
79616;SDS011;69097;52.132;5.422;2023-12-22T07:39:54;16.17;;;3.10;;
79616;SDS011;69097;52.132;5.422;2023-12-22T07:42:21;21.38;;;4.05;;
79616;SDS011;69097;52.132;5.422;2023-12-22T07:44:48;14.77;;;3.92;;
79616;SDS011;69097;52.132;5.422;2023-12-22T07:47:14;21.73;;;3.97;;
79616;SDS011;69097;52.132;5.422;2023-12-22T07:49:41;15.68;;;2.85;;
79616;SDS011;69097;52.132;5.422;2023-12-22T07:52:08;12.63;;;2.40;;
79616;SDS011;69097;52.132;5.422;2023-12-22T07:54:35;10.65;;;2.42;;
79616;SDS011;69097;52.132;5.422;2023-12-22T07:57:02;10.75;;;2.20;;
79616;SDS011;69097;52.132;5.422;2023-12-22T07:59:28;9.20;;;2.83;;
79616;SDS011;69097;52.132;5.422;2023-12-22T08:01:57;10.77;;;2.92;;
79616;SDS011;69097;52.132;5.422;2023-12-22T08:04:24;12.13;;;2.67;;
79616;SDS011;69097;52.132;5.422;2023-12-22T08:06:51;11.60;;;3.20;;
79616;SDS011;69097;52.132;5.422;2023-12-22T08:09:19;21.98;;;3.40;;
79616;SDS011;69097;52.132;5.422;2023-12-22T08:11:45;17.60;;;1.98;;
79616;SDS011;69097;52.132;5.422;2023-12-22T08:14:18;13.95;;;3.17;;
79616;SDS011;69097;52.132;5.422;2023-12-22T08:16:45;23.08;;;3.63;;
79616;SDS011;69097;52.132;5.422;2023-12-22T08:19:12;13.63;;;4.10;;
79616;SDS011;69097;52.132;5.422;2023-12-22T08:21:38;20.88;;;2.85;;
79616;SDS011;69097;52.132;5.422;2023-12-22T08:24:11;16.80;;;3.30;;
79616;SDS011;69097;52.132;5.422;2023-12-22T08:26:47;21.33;;;3.60;;
79616;SDS011;69097;52.132;5.422;2023-12-22T08:29:15;18.33;;;3.50;;
79616;SDS011;69097;52.132;5.422;2023-12-22T08:31:42;19.85;;;3.50;;
79616;SDS011;69097;52.132;5.422;2023-12-22T08:34:10;11.07;;;3.33;;
79616;SDS011;69097;52.132;5.422;2023-12-22T08:36:36;8.45;;;3.28;;
79616;SDS011;69097;52.132;5.422;2023-12-22T08:39:03;12.48;;;3.42;;
79616;SDS011;69097;52.132;5.422;2023-12-22T08:41:31;13.27;;;3.78;;
79616;SDS011;69097;52.132;5.422;2023-12-22T08:44:06;8.38;;;2.83;;
79616;SDS011;69097;52.132;5.422;2023-12-22T08:46:33;9.68;;;3.20;;
79616;SDS011;69097;52.132;5.422;2023-12-22T08:49:00;9.63;;;2.13;;
79616;SDS011;69097;52.132;5.422;2023-12-22T08:51:29;10.15;;;2.50;;
79616;SDS011;69097;52.132;5.422;2023-12-22T08:53:55;9.25;;;3.40;;
79616;SDS011;69097;52.132;5.422;2023-12-22T08:56:22;6.63;;;2.05;;
79616;SDS011;69097;52.132;5.422;2023-12-22T08:58:53;8.10;;;2.28;;
79616;SDS011;69097;52.132;5.422;2023-12-22T09:01:25;10.07;;;2.60;;
79616;SDS011;69097;52.132;5.422;2023-12-22T09:03:52;10.20;;;2.30;;
79616;SDS011;69097;52.132;5.422;2023-12-22T09:06:22;12.80;;;3.35;;
79616;SDS011;69097;52.132;5.422;2023-12-22T09:08:49;10.70;;;2.63;;
79616;SDS011;69097;52.132;5.422;2023-12-22T09:11:16;12.95;;;3.33;;
79616;SDS011;69097;52.132;5.422;2023-12-22T09:13:44;14.13;;;2.50;;
79616;SDS011;69097;52.132;5.422;2023-12-22T09:16:11;15.38;;;3.53;;
79616;SDS011;69097;52.132;5.422;2023-12-22T09:18:41;10.75;;;2.90;;
79616;SDS011;69097;52.132;5.422;2023-12-22T09:21:09;11.73;;;3.05;;
79616;SDS011;69097;52.132;5.422;2023-12-22T09:23:35;9.90;;;2.95;;
79616;SDS011;69097;52.132;5.422;2023-12-22T09:26:01;6.13;;;2.08;;
79616;SDS011;69097;52.132;5.422;2023-12-22T09:28:28;5.28;;;1.88;;
79616;SDS011;69097;52.132;5.422;2023-12-22T09:30:54;5.57;;;1.77;;
79616;SDS011;69097;52.132;5.422;2023-12-22T09:33:21;4.45;;;1.42;;
79616;SDS011;69097;52.132;5.422;2023-12-22T09:35:49;3.70;;;1.30;;
79616;SDS011;69097;52.132;5.422;2023-12-22T09:38:17;7.72;;;1.60;;
79616;SDS011;69097;52.132;5.422;2023-12-22T09:40:43;3.42;;;1.30;;
79616;SDS011;69097;52.132;5.422;2023-12-22T09:43:10;4.85;;;1.45;;
79616;SDS011;69097;52.132;5.422;2023-12-22T09:45:41;4.00;;;1.35;;
79616;SDS011;69097;52.132;5.422;2023-12-22T09:48:08;4.60;;;1.58;;
79616;SDS011;69097;52.132;5.422;2023-12-22T09:50:39;5.88;;;1.67;;
79616;SDS011;69097;52.132;5.422;2023-12-22T09:53:08;4.50;;;1.35;;
79616;SDS011;69097;52.132;5.422;2023-12-22T09:55:35;5.10;;;1.75;;
79616;SDS011;69097;52.132;5.422;2023-12-22T09:58:03;4.25;;;1.67;;
79616;SDS011;69097;52.132;5.422;2023-12-22T10:00:31;8.35;;;1.98;;
79616;SDS011;69097;52.132;5.422;2023-12-22T10:05:24;5.50;;;1.95;;
79616;SDS011;69097;52.132;5.422;2023-12-22T10:07:51;7.38;;;1.80;;
79616;SDS011;69097;52.132;5.422;2023-12-22T10:10:19;5.97;;;2.15;;
79616;SDS011;69097;52.132;5.422;2023-12-22T10:12:46;6.95;;;1.95;;
79616;SDS011;69097;52.132;5.422;2023-12-22T10:15:13;8.60;;;2.30;;
79616;SDS011;69097;52.132;5.422;2023-12-22T10:17:40;10.40;;;2.47;;
79616;SDS011;69097;52.132;5.422;2023-12-22T10:20:07;5.43;;;1.85;;
79616;SDS011;69097;52.132;5.422;2023-12-22T10:22:34;11.82;;;1.85;;
79616;SDS011;69097;52.132;5.422;2023-12-22T10:25:01;9.50;;;2.30;;
79616;SDS011;69097;52.132;5.422;2023-12-22T10:27:29;4.93;;;2.47;;
79616;SDS011;69097;52.132;5.422;2023-12-22T10:29:56;12.27;;;1.35;;
79616;SDS011;69097;52.132;5.422;2023-12-22T10:32:23;6.50;;;1.88;;
79616;SDS011;69097;52.132;5.422;2023-12-22T10:34:52;8.00;;;2.33;;
79616;SDS011;69097;52.132;5.422;2023-12-22T10:37:19;11.48;;;1.95;;
79616;SDS011;69097;52.132;5.422;2023-12-22T10:39:48;5.97;;;1.67;;
79616;SDS011;69097;52.132;5.422;2023-12-22T10:42:18;7.53;;;2.00;;
79616;SDS011;69097;52.132;5.422;2023-12-22T10:44:45;6.60;;;1.98;;
79616;SDS011;69097;52.132;5.422;2023-12-22T10:47:13;10.80;;;1.88;;
79616;SDS011;69097;52.132;5.422;2023-12-22T10:49:40;8.45;;;2.00;;
79616;SDS011;69097;52.132;5.422;2023-12-22T10:54:37;5.25;;;1.80;;
79616;SDS011;69097;52.132;5.422;2023-12-22T10:57:03;9.13;;;2.15;;
79616;SDS011;69097;52.132;5.422;2023-12-22T10:59:30;9.38;;;2.33;;
79616;SDS011;69097;52.132;5.422;2023-12-22T11:02:03;8.65;;;2.15;;
79616;SDS011;69097;52.132;5.422;2023-12-22T11:04:30;8.13;;;2.65;;
79616;SDS011;69097;52.132;5.422;2023-12-22T11:07:02;8.10;;;2.17;;
79616;SDS011;69097;52.132;5.422;2023-12-22T11:09:31;9.98;;;2.30;;
79616;SDS011;69097;52.132;5.422;2023-12-22T11:12:01;6.35;;;1.80;;
79616;SDS011;69097;52.132;5.422;2023-12-22T11:14:29;8.15;;;2.08;;
79616;SDS011;69097;52.132;5.422;2023-12-22T11:16:59;8.07;;;2.58;;
79616;SDS011;69097;52.132;5.422;2023-12-22T11:19:26;7.07;;;2.03;;
79616;SDS011;69097;52.132;5.422;2023-12-22T11:21:53;6.65;;;2.20;;
79616;SDS011;69097;52.132;5.422;2023-12-22T11:24:21;6.47;;;1.90;;
79616;SDS011;69097;52.132;5.422;2023-12-22T11:26:48;6.50;;;1.52;;
79616;SDS011;69097;52.132;5.422;2023-12-22T11:29:17;9.05;;;2.83;;
79616;SDS011;69097;52.132;5.422;2023-12-22T11:31:47;6.60;;;2.08;;
79616;SDS011;69097;52.132;5.422;2023-12-22T11:34:17;7.70;;;2.33;;
79616;SDS011;69097;52.132;5.422;2023-12-22T11:36:45;6.72;;;1.88;;
79616;SDS011;69097;52.132;5.422;2023-12-22T11:39:13;8.55;;;1.85;;
79616;SDS011;69097;52.132;5.422;2023-12-22T11:41:40;8.23;;;1.55;;
79616;SDS011;69097;52.132;5.422;2023-12-22T11:44:08;11.20;;;1.95;;
79616;SDS011;69097;52.132;5.422;2023-12-22T11:46:35;8.05;;;1.80;;
79616;SDS011;69097;52.132;5.422;2023-12-22T11:49:02;5.20;;;2.25;;
79616;SDS011;69097;52.132;5.422;2023-12-22T11:51:32;8.38;;;2.65;;
79616;SDS011;69097;52.132;5.422;2023-12-22T11:54:02;12.95;;;2.47;;
79616;SDS011;69097;52.132;5.422;2023-12-22T11:56:29;9.93;;;2.65;;
79616;SDS011;69097;52.132;5.422;2023-12-22T11:58:57;6.82;;;2.03;;
79616;SDS011;69097;52.132;5.422;2023-12-22T12:01:25;11.27;;;2.30;;
79616;SDS011;69097;52.132;5.422;2023-12-22T12:03:57;5.60;;;1.63;;
79616;SDS011;69097;52.132;5.422;2023-12-22T12:08:53;7.88;;;1.77;;
79616;SDS011;69097;52.132;5.422;2023-12-22T12:11:20;6.10;;;1.90;;
79616;SDS011;69097;52.132;5.422;2023-12-22T12:16:15;8.93;;;2.10;;
79616;SDS011;69097;52.132;5.422;2023-12-22T12:18:47;7.10;;;3.08;;
79616;SDS011;69097;52.132;5.422;2023-12-22T12:21:14;13.77;;;2.03;;
79616;SDS011;69097;52.132;5.422;2023-12-22T12:26:08;10.93;;;2.03;;
79616;SDS011;69097;52.132;5.422;2023-12-22T12:28:35;5.63;;;1.52;;
79616;SDS011;69097;52.132;5.422;2023-12-22T12:31:03;6.28;;;1.42;;
79616;SDS011;69097;52.132;5.422;2023-12-22T12:33:32;5.68;;;2.45;;
79616;SDS011;69097;52.132;5.422;2023-12-22T12:36:02;7.03;;;2.33;;
79616;SDS011;69097;52.132;5.422;2023-12-22T12:41:29;8.80;;;2.08;;
79616;SDS011;69097;52.132;5.422;2023-12-22T12:44:00;7.50;;;2.35;;
79616;SDS011;69097;52.132;5.422;2023-12-22T12:46:34;6.70;;;1.83;;
79616;SDS011;69097;52.132;5.422;2023-12-22T12:49:05;13.90;;;6.43;;
79616;SDS011;69097;52.132;5.422;2023-12-22T12:51:39;9.10;;;2.30;;
79616;SDS011;69097;52.132;5.422;2023-12-22T12:54:08;5.05;;;1.70;;
79616;SDS011;69097;52.132;5.422;2023-12-22T12:56:45;6.18;;;1.70;;
79616;SDS011;69097;52.132;5.422;2023-12-22T12:59:13;9.43;;;1.83;;
79616;SDS011;69097;52.132;5.422;2023-12-22T13:01:42;10.98;;;2.45;;
79616;SDS011;69097;52.132;5.422;2023-12-22T13:04:11;8.93;;;2.08;;
79616;SDS011;69097;52.132;5.422;2023-12-22T13:06:45;10.25;;;1.73;;
79616;SDS011;69097;52.132;5.422;2023-12-22T13:09:12;9.77;;;2.15;;
79616;SDS011;69097;52.132;5.422;2023-12-22T13:11:40;12.88;;;3.03;;
79616;SDS011;69097;52.132;5.422;2023-12-22T13:14:10;7.15;;;2.10;;
79616;SDS011;69097;52.132;5.422;2023-12-22T13:16:37;12.05;;;3.20;;
79616;SDS011;69097;52.132;5.422;2023-12-22T13:19:05;11.07;;;2.03;;
79616;SDS011;69097;52.132;5.422;2023-12-22T13:21:32;8.45;;;2.05;;
79616;SDS011;69097;52.132;5.422;2023-12-22T13:24:11;10.27;;;2.15;;
79616;SDS011;69097;52.132;5.422;2023-12-22T13:26:39;8.90;;;2.03;;
79616;SDS011;69097;52.132;5.422;2023-12-22T13:29:06;9.18;;;2.65;;
79616;SDS011;69097;52.132;5.422;2023-12-22T13:31:33;7.32;;;2.28;;
79616;SDS011;69097;52.132;5.422;2023-12-22T13:34:03;7.47;;;1.70;;
79616;SDS011;69097;52.132;5.422;2023-12-22T13:36:34;5.07;;;1.65;;
79616;SDS011;69097;52.132;5.422;2023-12-22T13:39:03;6.10;;;1.52;;
79616;SDS011;69097;52.132;5.422;2023-12-22T13:41:32;7.00;;;1.63;;
79616;SDS011;69097;52.132;5.422;2023-12-22T13:44:06;7.45;;;2.08;;
79616;SDS011;69097;52.132;5.422;2023-12-22T13:46:34;7.32;;;2.25;;
79616;SDS011;69097;52.132;5.422;2023-12-22T13:51:41;9.90;;;1.90;;
79616;SDS011;69097;52.132;5.422;2023-12-22T13:54:11;7.55;;;2.55;;
79616;SDS011;69097;52.132;5.422;2023-12-22T13:56:38;8.60;;;1.98;;
79616;SDS011;69097;52.132;5.422;2023-12-22T13:59:08;9.55;;;1.85;;
79616;SDS011;69097;52.132;5.422;2023-12-22T14:01:35;11.07;;;2.75;;
79616;SDS011;69097;52.132;5.422;2023-12-22T14:04:02;14.73;;;2.22;;
79616;SDS011;69097;52.132;5.422;2023-12-22T14:06:29;8.48;;;2.30;;
79616;SDS011;69097;52.132;5.422;2023-12-22T14:08:56;8.27;;;1.98;;
79616;SDS011;69097;52.132;5.422;2023-12-22T14:13:50;9.98;;;2.78;;
79616;SDS011;69097;52.132;5.422;2023-12-22T14:16:16;7.78;;;2.42;;
79616;SDS011;69097;52.132;5.422;2023-12-22T14:18:43;7.72;;;2.13;;
79616;SDS011;69097;52.132;5.422;2023-12-22T14:21:10;9.02;;;2.38;;
79616;SDS011;69097;52.132;5.422;2023-12-22T14:23:36;11.05;;;2.00;;
79616;SDS011;69097;52.132;5.422;2023-12-22T14:26:03;12.73;;;2.45;;
79616;SDS011;69097;52.132;5.422;2023-12-22T14:28:29;7.60;;;2.33;;
79616;SDS011;69097;52.132;5.422;2023-12-22T14:30:56;10.65;;;2.05;;
79616;SDS011;69097;52.132;5.422;2023-12-22T14:33:22;6.88;;;2.05;;
79616;SDS011;69097;52.132;5.422;2023-12-22T14:35:49;9.52;;;2.92;;
79616;SDS011;69097;52.132;5.422;2023-12-22T14:38:15;9.98;;;1.70;;
79616;SDS011;69097;52.132;5.422;2023-12-22T14:40:42;8.00;;;1.30;;
79616;SDS011;69097;52.132;5.422;2023-12-22T14:43:08;7.22;;;1.58;;
79616;SDS011;69097;52.132;5.422;2023-12-22T14:45:35;8.48;;;2.33;;
79616;SDS011;69097;52.132;5.422;2023-12-22T14:48:01;14.13;;;2.28;;
79616;SDS011;69097;52.132;5.422;2023-12-22T14:50:28;6.93;;;1.80;;
79616;SDS011;69097;52.132;5.422;2023-12-22T14:52:55;13.05;;;2.42;;
79616;SDS011;69097;52.132;5.422;2023-12-22T14:55:21;10.70;;;2.30;;
79616;SDS011;69097;52.132;5.422;2023-12-22T14:57:48;9.48;;;2.22;;
79616;SDS011;69097;52.132;5.422;2023-12-22T15:00:15;9.30;;;1.95;;
79616;SDS011;69097;52.132;5.422;2023-12-22T15:02:42;10.10;;;1.95;;
79616;SDS011;69097;52.132;5.422;2023-12-22T15:05:09;14.15;;;2.22;;
79616;SDS011;69097;52.132;5.422;2023-12-22T15:07:36;15.57;;;2.33;;
79616;SDS011;69097;52.132;5.422;2023-12-22T15:10:03;10.13;;;1.70;;